Arnoldsville, Georgia
Current Conditions -  °F | °C
As of 7:38 AM on Sunday 21 Dec 2014 (Local Time) from KAHN Reporting Station
Haze Haze  
Wind Chill: 40°   Ceiling: 400
Heat Index: 44°   Visibility: 2mi
Dew Point: 42°   Wind: 7mph
Humidity: 93%   Direction: 60°ENE
Pressure: 30.22"   Gusts: NA
Location:  33.91°N, 83.22°W
Report Text: KAHN 211238Z 06006KT 2SM BR OVC004 07/06 A3022 RMK AO2 RAB13E35 P0000 T00670056
Loading
Personal Weather Stations






























Interactive Weather Map New forecast layout! Learn more

10-Day Weather Forecast

Advertisements
Track Severe Weather on mobile